Time;durP1;ratioP1;P1;durP2;ratioP2;P2;SDS_P1;SDS_P2;PMS_P1;PMS_P2;Temp;Humidity;BMP_temperature;BMP_pressure;BME280_temperature;BME280_humidity;BME280_pressure;Samples;Min_cycle;Max_cycle;Signal;HPM_P1;HPM_P2
2023/02/05 00:00:40;;;;;;;6.75;4.60;;;-0.40;13.70;;;;;;4923445;29;20675;-82
2023/02/05 00:03:07;;;;;;;6.50;4.00;;;;;;;;;;4924148;29;20246;-83
2023/02/05 00:05:34;;;;;;;4.70;3.15;;;;;;;;;;4924515;29;20227;-82
2023/02/05 00:08:02;;;;;;;5.18;3.35;;;-0.40;99.90;;;;;;4923402;29;20212;-83
2023/02/05 00:10:29;;;;;;;7.60;3.13;;;;;;;;;;4923271;29;20259;-82
2023/02/05 00:12:56;;;;;;;5.18;3.17;;;;;;;;;;4922596;29;20211;-82
2023/02/05 00:15:24;;;;;;;4.72;3.05;;;;;;;;;;4921884;29;20280;-83
2023/02/05 00:17:50;;;;;;;3.53;3.25;;;-0.50;1.00;;;;;;4921850;29;20211;-83
2023/02/05 00:20:18;;;;;;;6.60;3.20;;;-1.00;1.00;;;;;;4924272;29;20356;-82
2023/02/05 00:22:44;;;;;;;4.10;3.40;;;-0.80;1.00;;;;;;4922792;29;20655;-82
2023/02/05 00:25:12;;;;;;;3.28;2.80;;;-0.80;99.90;;;;;;4920089;29;20212;-82
2023/02/05 00:27:40;;;;;;;5.40;2.90;;;;;;;;;;4920116;29;20262;-83
2023/02/05 00:30:08;;;;;;;7.13;3.13;;;-0.70;99.90;;;;;;4920148;29;20231;-83
2023/02/05 00:32:36;;;;;;;3.00;2.75;;;;;;;;;;4921486;29;20203;-83
2023/02/05 00:35:03;;;;;;;4.70;3.25;;;;;;;;;;4921743;29;20219;-83
2023/02/05 00:37:30;;;;;;;4.32;3.05;;;;;;;;;;4921545;29;20204;-82
2023/02/05 00:39:57;;;;;;;5.63;2.95;;;-1.00;1.00;;;;;;4932388;29;20275;-82
2023/02/05 00:42:25;;;;;;;5.05;3.17;;;-0.80;99.90;;;;;;4934925;29;20224;-82
2023/02/05 00:44:52;;;;;;;6.30;3.20;;;-0.70;99.90;;;;;;4929625;29;20196;-82
2023/02/05 00:47:19;;;;;;;5.20;3.13;;;;;;;;;;4928588;29;20228;-83
2023/02/05 00:49:46;;;;;;;4.70;3.72;;;-1.10;1.00;;;;;;4927920;29;20218;-82
2023/02/05 00:52:13;;;;;;;6.45;3.50;;;;;;;;;;4926883;29;20208;-82
2023/02/05 00:54:40;;;;;;;6.10;3.28;;;-1.50;1.00;;;;;;4927692;29;20208;-82
2023/02/05 00:57:07;;;;;;;4.88;3.40;;;-0.60;99.90;;;;;;4930850;29;20200;-82
2023/02/05 00:59:35;;;;;;;2.92;2.70;;;-0.80;99.90;;;;;;4926569;29;20204;-82
2023/02/05 01:02:02;;;;;;;3.30;2.97;;;-1.20;1.00;;;;;;4925471;29;20228;-82
2023/02/05 01:04:29;;;;;;;3.50;2.63;;;;;;;;;;4925654;29;20212;-83
2023/02/05 01:06:56;;;;;;;4.38;3.60;;;;;;;;;;4925004;29;20734;-82
2023/02/05 01:09:23;;;;;;;4.38;3.95;;;;;;;;;;4925294;29;20207;-82
2023/02/05 01:11:50;;;;;;;4.20;3.78;;;;;;;;;;4925189;29;20223;-82
2023/02/05 01:14:17;;;;;;;6.95;3.70;;;;;;;;;;4925455;29;20693;-82
2023/02/05 01:16:46;;;;;;;8.23;3.50;;;;;;;;;;4927387;29;20275;-82
2023/02/05 01:19:13;;;;;;;6.47;3.78;;;;;;;;;;4935398;29;20204;-82
2023/02/05 01:21:40;;;;;;;3.85;3.45;;;-1.10;1.00;;;;;;4953401;23;20227;-83
2023/02/05 01:24:07;;;;;;;4.20;2.90;;;;;;;;;;4944732;29;20207;-85
2023/02/05 01:26:34;;;;;;;4.03;3.60;;;;;;;;;;4950437;29;20223;-82
2023/02/05 01:29:01;;;;;;;4.43;3.70;;;;;;;;;;4954712;29;20255;-85
2023/02/05 01:31:28;;;;;;;4.40;4.00;;;;;;;;;;4934933;29;20234;-85
2023/02/05 01:33:56;;;;;;;5.50;3.22;;;-1.20;1.00;;;;;;4934637;29;20207;-83
2023/02/05 01:36:24;;;;;;;4.95;4.30;;;;;;;;;;4925736;29;20591;-85
2023/02/05 01:38:58;;;;;;;4.03;3.63;;;-1.30;12.50;;;;;;4926282;29;20212;-86
2023/02/05 01:41:27;;;;;;;3.65;3.40;;;-1.30;88.10;;;;;;4927035;29;20299;-87
2023/02/05 01:44:08;;;;;;;4.60;4.13;;;-0.30;99.90;;;;;;4926451;29;20240;-86
2023/02/05 01:46:36;;;;;;;6.82;3.97;;;-1.20;99.90;;;;;;4924904;29;20318;-86
2023/02/05 01:49:07;;;;;;;4.60;4.20;;;-1.30;99.90;;;;;;4925933;29;20215;-86
2023/02/05 01:51:37;;;;;;;5.35;4.18;;;-0.60;99.90;;;;;;4926037;29;20287;-86
2023/02/05 01:54:04;;;;;;;4.35;3.60;;;-1.40;99.90;;;;;;4924968;29;20204;-86
2023/02/05 01:56:40;;;;;;;5.68;4.30;;;-1.30;1.00;;;;;;4927130;29;20306;-85
2023/02/05 01:59:10;;;;;;;11.07;6.10;;;-1.40;1.00;;;;;;4929948;29;20192;-85
2023/02/05 02:01:41;;;;;;;10.70;6.35;;;-1.40;27.90;;;;;;4928508;29;20292;-85
2023/02/05 02:04:19;;;;;;;6.05;4.35;;;-1.10;1.00;;;;;;4934869;29;20208;-85
2023/02/05 02:06:47;;;;;;;6.18;5.40;;;;;;;;;;4940370;29;20208;-86
2023/02/05 02:09:14;;;;;;;6.88;4.38;;;;;;;;;;4942133;29;20207;-85
2023/02/05 02:11:43;;;;;;;7.63;5.15;;;-1.20;99.90;;;;;;4933037;29;20595;-84
2023/02/05 02:14:10;;;;;;;4.25;3.90;;;;;;;;;;4930362;29;20259;-84
2023/02/05 02:16:40;;;;;;;6.00;5.13;;;-0.30;99.90;;;;;;4927184;29;20258;-85
2023/02/05 02:19:17;;;;;;;5.95;4.95;;;-1.10;1.00;;;;;;4926753;29;20244;-84
2023/02/05 02:22:09;;;;;;;5.88;4.70;;;-1.10;99.90;;;;;;4926037;29;20660;-85
2023/02/05 02:24:59;;;;;;;6.13;4.43;;;-1.70;99.90;;;;;;4924966;29;20197;-83
2023/02/05 02:27:38;;;;;;;6.60;3.60;;;-1.40;99.90;;;;;;4924179;29;20682;-85
2023/02/05 02:30:15;;;;;;;4.88;4.35;;;-1.30;1.00;;;;;;4925282;29;20227;-85
2023/02/05 02:32:51;;;;;;;8.90;5.32;;;-1.30;1.00;;;;;;4925101;29;20651;-85
2023/02/05 02:35:27;;;;;;;10.65;5.30;;;-1.30;55.90;;;;;;4925289;29;20282;-85
2023/02/05 02:37:59;;;;;;;7.78;5.10;;;-1.30;1.00;;;;;;4934527;29;20188;-83
2023/02/05 02:40:32;;;;;;;7.07;5.25;;;-1.40;4.80;;;;;;4940635;29;20239;-84
2023/02/05 02:43:07;;;;;;;5.05;4.45;;;-1.80;1.00;;;;;;4940405;29;20251;-85
2023/02/05 02:45:36;;;;;;;6.47;4.97;;;-1.30;1.00;;;;;;4940500;29;20180;-83
2023/02/05 02:48:06;;;;;;;4.82;4.28;;;-1.30;99.90;;;;;;4940553;29;20379;-85
2023/02/05 02:50:37;;;;;;;9.48;5.78;;;-1.50;99.90;;;;;;4935197;29;20228;-85
2023/02/05 02:53:09;;;;;;;5.70;5.07;;;-1.50;99.90;;;;;;4927093;29;20223;-86
2023/02/05 02:55:44;;;;;;;11.63;6.13;;;-1.40;1.00;;;;;;4927913;29;20675;-86
2023/02/05 02:58:24;;;;;;;8.88;5.18;;;-1.60;99.90;;;;;;4925050;29;20187;-85
2023/02/05 03:00:55;;;;;;;11.85;5.65;;;-1.10;99.90;;;;;;4925423;29;20311;-84
2023/02/05 03:03:25;;;;;;;7.57;5.90;;;-1.60;99.90;;;;;;4925327;29;20188;-86
2023/02/05 03:05:55;;;;;;;8.88;5.57;;;-1.60;99.90;;;;;;4925500;29;20261;-86
2023/02/05 03:08:28;;;;;;;9.18;6.30;;;-1.70;99.90;;;;;;4927173;29;20222;-85
2023/02/05 03:10:59;;;;;;;8.90;6.60;;;-2.80;99.90;;;;;;4939765;29;20216;-85
2023/02/05 03:13:28;;;;;;;9.35;5.60;;;-1.80;1.00;;;;;;4935047;29;20259;-84
2023/02/05 03:15:55;;;;;;;9.50;6.28;;;-2.00;99.90;;;;;;4925047;29;20243;-85
2023/02/05 03:18:22;;;;;;;11.43;7.35;;;;;;;;;;4924984;29;20267;-85
2023/02/05 03:20:56;;;;;;;13.02;7.53;;;-1.70;99.90;;;;;;4926514;29;20268;-84
2023/02/05 03:23:24;;;;;;;9.73;5.40;;;-1.80;99.90;;;;;;4940506;28;20188;-84
2023/02/05 03:25:51;;;;;;;12.15;6.80;;;;;;;;;;4940451;29;20222;-84
2023/02/05 03:28:19;;;;;;;13.18;7.75;;;;;;;;;;4939688;29;20224;-85
2023/02/05 03:30:55;;;;;;;10.25;6.70;;;-1.40;1.00;;;;;;4924825;29;20230;-85
2023/02/05 03:33:39;;;;;;;9.13;6.72;;;-1.70;99.90;;;;;;4924018;29;20192;-85
2023/02/05 03:36:16;;;;;;;11.45;7.20;;;-1.70;99.90;;;;;;4923756;29;20200;-84
2023/02/05 03:39:01;;;;;;;10.05;6.45;;;-1.70;1.00;;;;;;4924021;29;20303;-85
2023/02/05 03:44:32;;;;;;;11.70;5.97;;;-1.80;1.00;;;;;;4923173;29;20215;-84
2023/02/05 03:47:05;;;;;;;7.68;6.35;;;-1.90;1.00;;;;;;4923484;29;20216;-85
2023/02/05 03:49:42;;;;;;;7.43;4.63;;;-1.80;99.90;;;;;;4925433;29;20212;-85
2023/02/05 03:52:15;;;;;;;5.88;5.05;;;-1.80;99.90;;;;;;4924442;29;20231;-83
2023/02/05 03:54:50;;;;;;;8.90;6.60;;;-1.60;99.90;;;;;;4923891;29;20282;-84
2023/02/05 03:57:22;;;;;;;9.25;6.65;;;-1.60;1.00;;;;;;4924890;29;20664;-85
2023/02/05 03:59:50;;;;;;;10.95;6.72;;;-1.80;1.00;;;;;;4923387;29;20201;-85
2023/02/05 04:02:20;;;;;;;7.03;5.88;;;-1.70;1.00;;;;;;4925292;29;20232;-85
2023/02/05 04:04:47;;;;;;;7.40;5.18;;;-2.00;99.90;;;;;;4928178;29;20273;-86
2023/02/05 04:07:14;;;;;;;5.47;4.72;;;;;;;;;;4939178;28;20296;-85
2023/02/05 04:09:41;;;;;;;8.70;5.95;;;-1.40;99.90;;;;;;4936942;29;20196;-84
2023/02/05 04:12:09;;;;;;;8.00;5.75;;;-1.50;1.00;;;;;;4923828;29;20291;-84
2023/02/05 04:14:36;;;;;;;7.97;4.65;;;-1.20;1.00;;;;;;4923416;29;20218;-84
2023/02/05 04:17:03;;;;;;;10.15;5.28;;;;;;;;;;4923635;29;20215;-85
2023/02/05 04:19:31;;;;;;;7.75;4.95;;;-1.40;63.90;;;;;;4922757;29;20242;-84
2023/02/05 04:21:58;;;;;;;5.53;4.55;;;-1.50;99.90;;;;;;4925170;29;20232;-85
2023/02/05 04:24:25;;;;;;;6.72;5.60;;;1.40;99.90;;;;;;4922722;29;20204;-85
2023/02/05 04:26:52;;;;;;;5.80;4.57;;;;;;;;;;4922535;29;20235;-85
2023/02/05 04:29:18;;;;;;;8.95;4.63;;;-1.70;1.00;;;;;;4924588;29;20218;-83
2023/02/05 04:31:46;;;;;;;6.13;4.55;;;;;;;;;;4937946;29;20238;-84
2023/02/05 04:34:12;;;;;;;5.68;4.03;;;-1.60;99.90;;;;;;4938399;29;20275;-83
2023/02/05 04:36:41;;;;;;;5.28;4.30;;;-1.70;99.90;;;;;;4933062;29;20227;-84
2023/02/05 04:39:08;;;;;;;6.70;3.80;;;;;;;;;;4932321;29;20215;-85
2023/02/05 04:41:35;;;;;;;5.18;3.65;;;;;;;;;;4923276;29;20231;-85
2023/02/05 04:44:02;;;;;;;4.90;4.47;;;-1.50;1.00;;;;;;4922197;29;20299;-84
2023/02/05 04:46:29;;;;;;;8.55;4.10;;;;;;;;;;4919869;29;20619;-84
2023/02/05 04:48:56;;;;;;;5.68;4.10;;;-1.60;3.80;;;;;;4920947;29;20234;-84
2023/02/05 04:51:23;;;;;;;5.60;3.63;;;;;;;;;;4920589;29;20606;-84
2023/02/05 04:53:51;;;;;;;8.73;3.58;;;-1.80;99.90;;;;;;4930028;28;20534;-83
2023/02/05 04:56:18;;;;;;;5.45;4.68;;;;;;;;;;4922334;29;20230;-83
2023/02/05 04:58:45;;;;;;;5.65;4.30;;;-1.40;85.40;;;;;;4922125;29;20224;-84
2023/02/05 05:01:13;;;;;;;4.75;4.25;;;-1.50;1.00;;;;;;4925514;29;20224;-83
2023/02/05 05:03:40;;;;;;;4.38;3.97;;;-1.80;1.00;;;;;;4921918;29;20243;-85
2023/02/05 05:06:08;;;;;;;4.97;4.45;;;-1.70;1.00;;;;;;4918608;29;20208;-85
2023/02/05 05:08:35;;;;;;;4.85;3.97;;;;;;;;;;4918239;29;20231;-85
2023/02/05 05:11:08;;;;;;;4.05;3.65;;;-1.40;36.60;;;;;;4919416;29;20232;-84
2023/02/05 05:13:36;;;;;;;9.48;4.80;;;-1.50;99.90;;;;;;4921058;29;20205;-85
2023/02/05 05:16:04;;;;;;;6.22;4.18;;;-1.40;99.50;;;;;;4922265;29;20294;-85
2023/02/05 05:18:31;;;;;;;4.57;4.15;;;-1.20;99.90;;;;;;4920403;29;20287;-85
2023/02/05 05:20:58;;;;;;;6.20;3.95;;;-1.60;99.90;;;;;;4919801;29;20244;-84
2023/02/05 05:23:25;;;;;;;5.03;4.13;;;-1.50;1.00;;;;;;4921355;29;20208;-84
2023/02/05 05:25:52;;;;;;;3.97;3.65;;;-1.20;1.00;;;;;;4921920;29;20212;-85
2023/02/05 05:28:20;;;;;;;6.07;4.15;;;-1.30;1.00;;;;;;4922898;29;20720;-85
2023/02/05 05:30:47;;;;;;;8.93;4.80;;;;;;;;;;4935576;29;20244;-83
2023/02/05 05:33:14;;;;;;;6.90;4.00;;;-1.00;1.00;;;;;;4940428;29;20241;-82
2023/02/05 05:35:42;;;;;;;6.45;3.95;;;-1.00;1.00;;;;;;4936687;29;20223;-84
2023/02/05 05:38:09;;;;;;;14.52;9.63;;;;;;;;;;4928019;29;20235;-84
2023/02/05 05:46:07;;;;;;;6.90;5.80;;;-1.60;99.90;;;;;;4942526;29;20208;-84
2023/02/05 05:48:34;;;;;;;6.68;5.35;;;-1.60;99.90;;;;;;4929427;29;20246;-84
2023/02/05 05:51:01;;;;;;;9.60;6.30;;;;;;;;;;4939160;29;20334;-85
2023/02/05 05:53:28;;;;;;;7.15;6.55;;;;;;;;;;4935256;29;20230;-84
2023/02/05 05:55:55;;;;;;;5.20;4.72;;;;;;;;;;4938478;29;20208;-84
2023/02/05 05:58:24;;;;;;;10.07;5.88;;;-1.70;1.00;;;;;;4929820;29;20206;-85
2023/02/05 06:00:51;;;;;;;7.40;4.78;;;;;;;;;;4931368;29;20295;-86
2023/02/05 06:03:21;;;;;;;6.80;4.80;;;;;;;;;;4929748;29;20266;-85
2023/02/05 06:05:48;;;;;;;5.55;4.30;;;;;;;;;;4927680;29;20446;-86
2023/02/05 06:08:15;;;;;;;11.15;4.75;;;;;;;;;;4926869;29;20243;-84
2023/02/05 06:10:42;;;;;;;6.80;4.72;;;;;;;;;;4926073;29;20319;-84
2023/02/05 06:13:09;;;;;;;6.57;4.60;;;-1.40;99.90;;;;;;4926099;29;20271;-86
2023/02/05 06:15:37;;;;;;;8.55;5.88;;;;;;;;;;4925986;29;20250;-84
2023/02/05 06:18:05;;;;;;;7.25;4.65;;;;;;;;;;4925172;29;20208;-85
2023/02/05 06:20:31;;;;;;;15.27;4.43;;;-1.90;1.00;;;;;;4924852;29;20624;-85
2023/02/05 06:22:59;;;;;;;5.10;3.80;;;;;;;;;;4926145;29;20192;-85
2023/02/05 06:25:26;;;;;;;4.25;3.85;;;-1.60;1.00;;;;;;4926340;29;20558;-85
2023/02/05 06:27:52;;;;;;;4.93;3.97;;;-1.50;1.00;;;;;;4941173;29;20228;-84
2023/02/05 06:30:20;;;;;;;8.52;5.13;;;;;;;;;;4937533;29;20807;-84
2023/02/05 06:32:48;;;;;;;8.02;4.20;;;-1.60;99.90;;;;;;4926841;29;20243;-84
2023/02/05 06:35:15;;;;;;;5.35;4.85;;;;;;;;;;4926038;29;20208;-85
2023/02/05 06:37:42;;;;;;;5.03;4.32;;;;;;;;;;4926926;29;20669;-85
2023/02/05 06:40:10;;;;;;;7.85;4.82;;;-1.60;99.90;;;;;;4939240;29;20295;-83
2023/02/05 06:42:37;;;;;;;9.85;4.47;;;;;;;;;;4936216;29;20303;-85
2023/02/05 06:45:05;;;;;;;8.40;4.78;;;-1.60;99.90;;;;;;4925183;29;20216;-84
2023/02/05 06:47:32;;;;;;;4.90;3.95;;;;;;;;;;4921960;29;20228;-84
2023/02/05 06:50:00;;;;;;;6.85;4.60;;;-1.50;1.00;;;;;;4924157;29;20218;-83
2023/02/05 06:52:27;;;;;;;5.50;4.50;;;-1.30;1.00;;;;;;4924930;29;20235;-83
2023/02/05 06:54:54;;;;;;;3.90;3.53;;;;;;;;;;4923457;29;20294;-84
2023/02/05 06:57:21;;;;;;;4.30;3.70;;;-1.80;1.00;;;;;;4926741;29;20212;-84
2023/02/05 06:59:48;;;;;;;7.68;4.25;;;;;;;;;;4925610;29;20299;-85
2023/02/05 07:02:15;;;;;;;8.32;5.00;;;;;;;;;;4922621;29;20231;-85
2023/02/05 07:04:42;;;;;;;4.78;3.97;;;-1.10;1.00;;;;;;4922867;29;20235;-85
2023/02/05 07:07:10;;;;;;;3.80;3.50;;;-1.30;1.00;;;;;;4924081;29;20211;-84
2023/02/05 07:09:37;;;;;;;10.82;4.35;;;-1.20;1.00;;;;;;4924651;29;20231;-85
2023/02/05 07:12:05;;;;;;;4.60;3.47;;;-1.40;99.90;;;;;;4922764;29;20279;-85
2023/02/05 07:14:32;;;;;;;5.25;4.75;;;;;;;;;;4935104;29;20204;-85
2023/02/05 07:16:59;;;;;;;6.65;4.90;;;;;;;;;;4941416;29;20231;-85
2023/02/05 07:19:26;;;;;;;4.68;4.28;;;;;;;;;;4926671;29;20655;-84
2023/02/05 07:21:53;;;;;;;8.27;4.82;;;;;;;;;;4945707;23;20234;-82
2023/02/05 07:24:22;;;;;;;4.72;4.22;;;-1.20;99.90;;;;;;4942040;29;20217;-82
2023/02/05 07:26:48;;;;;;;6.53;4.43;;;-1.20;99.90;;;;;;4939286;29;20218;-82
2023/02/05 07:29:15;;;;;;;5.30;4.38;;;;;;;;;;4939672;29;20585;-82
2023/02/05 07:31:43;;;;;;;5.30;4.15;;;;;;;;;;4930995;29;20224;-83
2023/02/05 07:34:10;;;;;;;6.40;4.78;;;;;;;;;;4922529;29;20214;-82
2023/02/05 07:36:37;;;;;;;6.32;4.47;;;;;;;;;;4923088;29;20294;-82
2023/02/05 07:39:04;;;;;;;4.80;4.35;;;;;;;;;;4923157;29;20226;-84
2023/02/05 07:41:32;;;;;;;10.07;5.78;;;-1.10;99.90;;;;;;4930950;29;20270;-83
2023/02/05 07:43:59;;;;;;;4.40;4.00;;;;;;;;;;4934737;29;20207;-83
2023/02/05 07:46:26;;;;;;;5.38;4.30;;;;;;;;;;4933426;29;20299;-82
2023/02/05 07:48:54;;;;;;;3.72;3.42;;;-1.20;1.00;;;;;;4924446;29;20224;-82
2023/02/05 07:51:23;;;;;;;5.75;3.90;;;-1.50;99.90;;;;;;4922763;29;20275;-82
2023/02/05 07:53:50;;;;;;;3.45;3.15;;;;;;;;;;4923452;29;20250;-83
2023/02/05 07:56:20;;;;;;;6.47;5.03;;;-1.20;1.00;;;;;;4924476;29;20295;-83
2023/02/05 07:58:48;;;;;;;9.68;6.00;;;-1.30;99.90;;;;;;4923893;29;20210;-82
2023/02/05 08:01:15;;;;;;;8.05;6.88;;;;;;;;;;4923377;29;20319;-83
2023/02/05 08:03:43;;;;;;;9.52;8.32;;;;;;;;;;4923433;29;20204;-83
2023/02/05 08:06:13;;;;;;;16.27;8.50;;;-1.40;1.00;;;;;;4923125;29;20679;-83
2023/02/05 08:08:40;;;;;;;16.40;11.15;;;;;;;;;;4922914;29;20232;-83
2023/02/05 08:11:08;;;;;;;20.85;10.10;;;-1.30;1.00;;;;;;4928436;29;20314;-83
2023/02/05 08:13:35;;;;;;;7.75;6.95;;;-1.70;26.80;;;;;;4924240;29;20235;-83
2023/02/05 08:16:06;;;;;;;9.82;7.40;;;-1.40;99.90;;;;;;4923832;29;20263;-82
2023/02/05 08:18:33;;;;;;;11.15;8.10;;;;;;;;;;4924203;29;20712;-83
2023/02/05 08:21:00;;;;;;;8.60;6.75;;;-1.30;66.10;;;;;;4924017;29;20228;-82
2023/02/05 08:23:27;;;;;;;11.70;7.72;;;;;;;;;;4923109;29;20247;-82
2023/02/05 08:25:58;;;;;;;9.90;7.07;;;-1.20;1.00;;;;;;4923238;29;20654;-83
2023/02/05 08:28:27;;;;;;;11.68;6.63;;;-1.20;99.90;;;;;;4925658;29;20252;-82
2023/02/05 08:30:55;;;;;;;9.95;7.28;;;;;;;;;;4928915;29;20224;-82
2023/02/05 08:33:23;;;;;;;13.18;7.88;;;-1.40;1.00;;;;;;4937197;29;20212;-82
2023/02/05 08:35:50;;;;;;;7.75;6.25;;;;;;;;;;4932481;29;20208;-82
2023/02/05 08:38:17;;;;;;;21.35;6.57;;;;;;;;;;4924399;29;20204;-83
2023/02/05 08:40:45;;;;;;;8.98;6.45;;;;;;;;;;4925781;29;20219;-83
2023/02/05 08:43:12;;;;;;;9.90;6.75;;;;;;;;;;4929062;29;20267;-82
2023/02/05 08:45:39;;;;;;;8.00;7.00;;;-1.00;99.90;;;;;;4928913;29;20236;-82
2023/02/05 08:48:06;;;;;;;7.70;6.90;;;;;;;;;;4927669;29;20231;-82
2023/02/05 08:50:35;;;;;;;9.02;6.30;;;;;;;;;;4936146;29;20214;-82
2023/02/05 08:53:02;;;;;;;11.40;7.10;;;;;;;;;;4936093;29;20216;-83
2023/02/05 08:55:29;;;;;;;7.78;5.90;;;;;;;;;;4932670;29;20567;-84
2023/02/05 08:57:56;;;;;;;8.18;5.30;;;;;;;;;;4926598;29;20275;-83
2023/02/05 09:00:25;;;;;;;16.17;6.35;;;-0.70;99.90;;;;;;4930785;29;20271;-83
2023/02/05 09:02:52;;;;;;;8.70;5.45;;;;;;;;;;4934658;29;20223;-84
2023/02/05 09:05:20;;;;;;;9.88;5.78;;;;;;;;;;4933120;28;20208;-82
2023/02/05 09:07:48;;;;;;;7.47;5.50;;;-0.80;1.00;;;;;;4929402;29;20211;-82
2023/02/05 09:10:15;;;;;;;13.60;7.90;;;;;;;;;;4934800;29;20227;-83
2023/02/05 09:12:42;;;;;;;24.17;10.98;;;;;;;;;;4937328;29;20291;-82
2023/02/05 09:15:10;;;;;;;16.88;8.80;;;-0.50;99.90;;;;;;4934847;29;20243;-83
2023/02/05 09:17:37;;;;;;;12.50;7.40;;;-0.80;99.90;;;;;;4938913;29;20242;-84
2023/02/05 09:20:04;;;;;;;9.93;6.90;;;-0.60;99.90;;;;;;4936545;29;20215;-84
2023/02/05 09:22:31;;;;;;;21.42;12.38;;;;;;;;;;4937618;29;20296;-83
2023/02/05 09:25:00;;;;;;;18.08;11.68;;;;;;;;;;4934281;29;20276;-83
2023/02/05 09:27:27;;;;;;;13.00;9.65;;;;;;;;;;4933318;29;20215;-83
2023/02/05 09:29:54;;;;;;;10.68;7.05;;;;;;;;;;4931894;29;20636;-85
2023/02/05 09:32:21;;;;;;;8.80;5.63;;;;;;;;;;4930601;29;20719;-84
2023/02/05 09:34:48;;;;;;;6.07;5.35;;;;;;;;;;4930797;29;20208;-84
2023/02/05 09:37:16;;;;;;;5.53;5.03;;;;;;;;;;4931138;29;20215;-84
2023/02/05 09:39:43;;;;;;;7.05;4.25;;;;;;;;;;4930820;29;20271;-84
2023/02/05 09:42:20;;;;;;;9.85;4.82;;;-0.30;55.20;;;;;;4933093;29;20291;-84
2023/02/05 09:45:00;;;;;;;4.40;4.00;;;-0.30;55.20;;;;;;4933957;29;20212;-84
2023/02/05 09:47:32;;;;;;;5.25;4.85;;;-0.30;16.20;;;;;;4934524;29;20200;-83
2023/02/05 09:50:05;;;;;;;8.25;5.68;;;-0.20;14.60;;;;;;4930249;29;20240;-84
2023/02/05 09:52:36;;;;;;;16.42;9.07;;;-0.20;1.00;;;;;;4930245;29;20235;-84
2023/02/05 09:55:07;;;;;;;6.22;5.65;;;-0.20;1.00;;;;;;4930558;29;20198;-85
2023/02/05 09:57:39;;;;;;;6.05;5.53;;;-0.20;16.90;;;;;;4930405;29;20203;-84
2023/02/05 10:00:19;;;;;;;8.07;6.75;;;0.00;1.00;;;;;;4931313;29;20219;-84
2023/02/05 10:02:50;;;;;;;12.32;6.63;;;0.20;1.00;;;;;;4930723;29;20289;-84
2023/02/05 10:05:17;;;;;;;5.10;4.60;;;;;;;;;;4931644;29;20200;-84
2023/02/05 10:07:52;;;;;;;7.50;4.93;;;0.50;99.90;;;;;;4932193;29;20212;-85
2023/02/05 10:10:24;;;;;;;7.38;6.28;;;0.20;1.00;;;;;;4932685;29;20239;-85
2023/02/05 10:13:09;;;;;;;7.90;5.35;;;0.10;1.00;;;;;;4933791;29;20699;-84
2023/02/05 10:15:57;;;;;;;5.07;4.47;;;0.20;1.00;;;;;;4935387;29;20264;-84
2023/02/05 10:18:29;;;;;;;9.32;5.43;;;0.00;99.90;;;;;;4935676;29;20199;-83
2023/02/05 10:21:06;;;;;;;5.25;4.80;;;0.20;1.00;;;;;;4934083;29;20296;-85
2023/02/05 10:23:51;;;;;;;7.43;5.57;;;0.20;1.00;;;;;;4938096;29;20208;-84
2023/02/05 10:26:19;;;;;;;8.73;5.00;;;;;;;;;;4942472;28;20200;-83
2023/02/05 10:29:09;;;;;;;17.70;8.05;;;0.20;1.00;;;;;;4936663;29;20227;-83
2023/02/05 10:31:43;;;;;;;5.97;5.45;;;0.30;1.00;;;;;;4929903;29;20258;-83
2023/02/05 10:34:18;;;;;;;43.03;17.30;;;0.40;1.00;;;;;;4929062;29;20195;-84
2023/02/05 10:36:49;;;;;;;10.88;6.57;;;0.40;1.00;;;;;;4932749;29;20206;-83
2023/02/05 10:39:19;;;;;;;11.00;7.53;;;0.40;1.00;;;;;;4929454;29;20189;-84
2023/02/05 10:41:51;;;;;;;18.25;10.57;;;0.40;1.00;;;;;;4928735;29;20236;-84
2023/02/05 10:44:25;;;;;;;18.40;9.65;;;0.50;1.00;;;;;;4929213;29;20196;-84
2023/02/05 10:46:57;;;;;;;7.45;5.63;;;0.50;1.00;;;;;;4933879;29;20214;-84
2023/02/05 10:49:28;;;;;;;9.20;6.93;;;0.30;1.00;;;;;;4930347;29;20232;-84
2023/02/05 10:51:55;;;;;;;7.25;6.07;;;;;;;;;;4928417;29;20232;-83
2023/02/05 10:54:27;;;;;;;8.82;6.80;;;0.60;99.90;;;;;;4928940;29;20234;-83
2023/02/05 10:56:54;;;;;;;7.47;5.03;;;0.70;99.90;;;;;;4927832;29;20212;-84
2023/02/05 10:59:26;;;;;;;4.35;3.38;;;0.70;99.90;;;;;;4927554;29;20204;-83
2023/02/05 11:01:54;;;;;;;4.90;4.50;;;0.60;1.00;;;;;;4928919;29;20320;-83
2023/02/05 11:04:31;;;;;;;6.13;5.30;;;0.60;1.00;;;;;;4929895;29;20227;-84
2023/02/05 11:06:58;;;;;;;10.43;6.43;;;;;;;;;;4935183;29;20188;-85
2023/02/05 11:09:33;;;;;;;12.40;6.82;;;0.70;1.00;;;;;;4932037;29;20232;-83
2023/02/05 11:12:02;;;;;;;9.10;5.80;;;0.90;99.90;;;;;;4931784;29;20258;-84
2023/02/05 11:14:34;;;;;;;5.43;4.63;;;0.80;1.00;;;;;;4929915;29;20208;-83
2023/02/05 11:17:07;;;;;;;7.07;4.90;;;3.00;1.00;;;;;;4928194;29;20199;-84
2023/02/05 11:19:34;;;;;;;7.22;4.50;;;;;;;;;;4927563;29;20184;-84
2023/02/05 11:22:03;;;;;;;6.75;5.45;;;0.80;1.00;;;;;;4928648;29;20267;-84
2023/02/05 11:24:33;;;;;;;4.50;4.10;;;0.80;1.00;;;;;;4930658;29;20218;-84
2023/02/05 11:27:29;;;;;;;7.30;3.92;;;1.00;1.00;;;;;;4932760;29;20282;-85
2023/02/05 11:29:59;;;;;;;3.83;3.35;;;0.80;1.00;;;;;;4933109;29;20220;-84
2023/02/05 11:32:35;;;;;;;4.53;4.13;;;0.80;1.00;;;;;;4934077;29;20244;-85
2023/02/05 11:35:13;;;;;;;9.65;4.03;;;;;;;;;;4930477;29;20215;-83
2023/02/05 11:37:41;;;;;;;8.98;5.57;;;;;;;;;;4930855;29;20208;-84
2023/02/05 11:40:19;;;;;;;4.68;4.28;;;0.80;1.00;;;;;;4933143;29;20311;-84
2023/02/05 11:42:52;;;;;;;6.20;3.80;;;0.80;1.00;;;;;;4933975;29;20717;-85
2023/02/05 11:45:22;;;;;;;4.80;3.45;;;0.80;1.00;;;;;;4934260;29;20240;-83
2023/02/05 11:47:49;;;;;;;10.25;4.88;;;;;;;;;;4934872;29;20196;-86
2023/02/05 11:50:24;;;;;;;6.65;3.53;;;0.90;1.00;;;;;;4938269;29;20224;-84
2023/02/05 11:52:52;;;;;;;4.75;3.10;;;0.90;1.00;;;;;;4938578;29;20230;-83
2023/02/05 11:55:28;;;;;;;8.75;3.80;;;1.00;1.00;;;;;;4937991;29;20240;-83
2023/02/05 11:58:00;;;;;;;6.13;4.78;;;1.10;1.00;;;;;;4936352;29;20196;-84
2023/02/05 12:00:29;;;;;;;5.28;2.60;;;;;;;;;;4937482;29;20279;-84
2023/02/05 12:03:03;;;;;;;7.05;3.58;;;;;;;;;;4935720;29;20214;-85
2023/02/05 12:05:35;;;;;;;4.80;2.88;;;1.40;1.00;;;;;;4926507;29;20192;-84
2023/02/05 12:08:10;;;;;;;6.20;5.10;;;1.40;1.00;;;;;;4925498;29;20204;-85
2023/02/05 12:10:42;;;;;;;7.80;4.00;;;1.20;1.00;;;;;;4927189;29;20310;-84
2023/02/05 12:13:18;;;;;;;5.70;3.80;;;1.20;1.00;;;;;;4927860;29;20235;-84
2023/02/05 12:15:57;;;;;;;3.78;3.35;;;1.20;1.00;;;;;;4928558;29;20214;-84
2023/02/05 12:18:38;;;;;;;4.82;4.35;;;1.10;1.00;;;;;;4927961;29;20291;-84
2023/02/05 12:21:18;;;;;;;5.35;3.80;;;1.40;1.00;;;;;;4927376;29;20264;-84
2023/02/05 12:24:10;;;;;;;5.20;3.92;;;1.30;1.00;;;;;;4927298;29;20268;-84
2023/02/05 12:26:39;;;;;;;6.45;4.57;;;1.70;99.90;;;;;;4927896;29;20220;-84
2023/02/05 12:29:23;;;;;;;4.25;3.67;;;1.40;1.00;;;;;;4926377;29;20211;-84
2023/02/05 12:32:00;;;;;;;4.45;3.60;;;1.60;1.00;;;;;;4938121;29;20230;-82
2023/02/05 12:34:35;;;;;;;3.65;3.35;;;1.60;1.00;;;;;;4939707;29;20244;-83
2023/02/05 12:37:11;;;;;;;7.43;4.22;;;1.30;1.00;;;;;;4932789;28;20247;-83
2023/02/05 12:39:44;;;;;;;4.20;3.80;;;1.30;1.00;;;;;;4926989;29;20210;-84
2023/02/05 12:42:24;;;;;;;5.88;3.35;;;1.30;1.00;;;;;;4927850;29;20319;-83
2023/02/05 12:45:11;;;;;;;3.90;3.50;;;1.50;1.00;;;;;;4931388;29;20256;-84
2023/02/05 12:47:50;;;;;;;3.50;3.17;;;1.50;1.00;;;;;;4932845;29;20280;-83
2023/02/05 12:50:37;;;;;;;7.65;4.72;;;1.30;1.00;;;;;;4929180;29;20220;-83
2023/02/05 12:53:18;;;;;;;5.57;4.00;;;1.30;1.00;;;;;;4937058;29;20259;-83
2023/02/05 12:55:59;;;;;;;3.78;3.38;;;1.50;1.00;;;;;;4935679;29;20191;-84
2023/02/05 12:58:33;;;;;;;3.95;2.38;;;1.50;1.00;;;;;;4933563;29;20216;-84
2023/02/05 13:01:06;;;;;;;6.60;5.75;;;1.40;1.00;;;;;;4930441;29;20229;-84
2023/02/05 13:03:40;;;;;;;6.70;4.75;;;1.50;1.00;;;;;;4930660;29;20278;-83
2023/02/05 13:06:13;;;;;;;5.72;4.55;;;1.50;1.00;;;;;;4930487;29;20255;-81
2023/02/05 13:08:43;;;;;;;17.50;4.57;;;1.50;1.00;;;;;;4942817;29;20216;-82
2023/02/05 13:11:16;;;;;;;5.30;4.60;;;1.50;1.00;;;;;;4943611;28;20263;-81
2023/02/05 13:13:49;;;;;;;4.85;4.20;;;1.40;1.00;;;;;;4942226;29;20224;-83
2023/02/05 13:16:19;;;;;;;6.55;5.15;;;1.50;1.00;;;;;;4941842;28;20193;-83
2023/02/05 13:18:54;;;;;;;6.15;4.20;;;1.50;1.00;;;;;;4941998;29;20188;-81
2023/02/05 13:30:03;;;;;;;4.07;3.13;;;1.80;1.00;;;;;;4944136;28;20228;-81
2023/02/05 13:32:33;;;;;;;5.40;3.25;;;1.70;1.00;;;;;;4944352;28;20299;-80
2023/02/05 13:35:01;;;;;;;9.95;3.70;;;1.60;1.00;;;;;;4944585;28;20207;-81
2023/02/05 13:37:45;;;;;;;6.18;4.07;;;1.40;99.90;;;;;;4944122;28;20188;-81
2023/02/05 13:40:43;;;;;;;5.20;4.70;;;1.70;1.00;;;;;;4944108;28;20231;-82
2023/02/05 13:43:25;;;;;;;7.40;5.65;;;1.70;1.00;;;;;;4916313;29;20279;-82
2023/02/05 13:46:37;;;;;;;5.20;4.15;;;1.70;1.00;;;;;;4935026;29;20196;-82
2023/02/05 13:49:29;;;;;;;8.98;5.18;;;1.70;1.00;;;;;;4935730;29;20219;-82
2023/02/05 13:52:17;;;;;;;8.00;5.00;;;1.70;1.00;;;;;;4937370;29;20247;-83
2023/02/05 13:55:18;;;;;;;5.18;4.47;;;1.60;1.00;;;;;;4935327;29;20208;-83
2023/02/05 13:58:10;;;;;;;4.68;3.83;;;1.60;1.00;;;;;;4899563;29;20232;-84
2023/02/05 14:00:40;;;;;;;4.57;3.35;;;1.60;1.00;;;;;;4935176;29;20282;-83
2023/02/05 14:03:08;;;;;;;13.02;6.60;;;1.70;1.00;;;;;;4937307;29;20196;-83